Time;durP1;ratioP1;P1;durP2;ratioP2;P2;SDS_P1;SDS_P2;PMS_P1;PMS_P2;Temp;Humidity;BMP_temperature;BMP_pressure;BME280_temperature;BME280_humidity;BME280_pressure;Samples;Min_cycle;Max_cycle;Signal;HPM_P1;HPM_P2
2022/11/25 00:00:19;;;;;;;10.25;3.30;;;7.00;99.90;;;;;;4974542;28;20504;-79
2022/11/25 00:02:45;;;;;;;16.60;3.17;;;6.90;99.90;;;;;;4975483;28;20088;-79
2022/11/25 00:05:10;;;;;;;13.10;3.80;;;7.00;99.90;;;;;;4991072;28;20038;-78
2022/11/25 00:07:37;;;;;;;12.88;2.80;;;7.00;99.90;;;;;;4974498;28;20377;-78
2022/11/25 00:10:03;;;;;;;15.45;3.17;;;7.00;99.90;;;;;;4974613;28;20049;-78
2022/11/25 00:12:29;;;;;;;12.00;3.38;;;7.00;99.90;;;;;;4973818;28;20049;-78
2022/11/25 00:14:54;;;;;;;19.70;3.85;;;7.10;99.90;;;;;;4964010;28;20050;-79
2022/11/25 00:17:20;;;;;;;13.50;3.70;;;7.00;99.90;;;;;;4964809;28;20120;-79
2022/11/25 00:19:47;;;;;;;15.38;3.83;;;7.00;99.90;;;;;;4978916;28;20035;-78
2022/11/25 00:22:14;;;;;;;16.85;3.65;;;7.00;99.90;;;;;;4978537;28;20042;-79
2022/11/25 00:24:39;;;;;;;11.77;3.13;;;7.00;99.90;;;;;;4978635;28;20053;-79
2022/11/25 00:27:05;;;;;;;14.57;3.53;;;6.90;99.90;;;;;;4978830;28;20046;-79
2022/11/25 00:29:31;;;;;;;14.57;3.08;;;7.00;99.90;;;;;;4977174;28;20389;-79
2022/11/25 00:31:56;;;;;;;14.13;3.40;;;7.00;99.90;;;;;;4978591;28;20046;-79
2022/11/25 00:34:22;;;;;;;13.75;2.85;;;7.00;99.90;;;;;;4978866;28;20046;-79
2022/11/25 00:36:47;;;;;;;13.00;3.72;;;7.00;99.90;;;;;;4978835;28;20467;-79
2022/11/25 00:39:15;;;;;;;16.00;3.35;;;7.00;99.90;;;;;;4978396;28;20387;-80
2022/11/25 00:44:35;;;;;;;12.60;3.70;;;7.10;99.90;;;;;;5011051;28;20073;-79
2022/11/25 00:47:10;;;;;;;14.60;3.58;;;7.10;99.90;;;;;;4978245;28;20034;-79
2022/11/25 00:49:37;;;;;;;14.65;3.35;;;7.10;99.90;;;;;;4960547;28;20046;-78
2022/11/25 00:52:04;;;;;;;10.05;3.40;;;7.10;99.90;;;;;;4994719;28;20499;-79
2022/11/25 00:54:29;;;;;;;10.15;3.08;;;7.10;99.90;;;;;;4958808;28;20099;-79
2022/11/25 00:56:56;;;;;;;14.90;3.75;;;7.10;99.90;;;;;;4977958;28;20098;-79
2022/11/25 00:59:21;;;;;;;14.45;3.83;;;7.10;99.90;;;;;;4980171;28;20038;-79
2022/11/25 01:01:47;;;;;;;12.63;3.53;;;7.10;99.90;;;;;;4983434;28;20044;-79
2022/11/25 01:04:12;;;;;;;16.50;3.92;;;7.10;99.90;;;;;;4977794;28;20034;-80
2022/11/25 01:06:38;;;;;;;10.57;3.30;;;7.10;99.90;;;;;;4977395;28;20086;-79
2022/11/25 01:09:05;;;;;;;12.75;3.40;;;7.00;99.90;;;;;;4961362;28;20038;-79
2022/11/25 01:11:31;;;;;;;12.23;3.58;;;7.00;99.90;;;;;;4967209;28;20043;-80
2022/11/25 01:13:57;;;;;;;14.27;3.72;;;7.00;99.90;;;;;;4973593;28;20084;-80
2022/11/25 01:16:23;;;;;;;15.18;3.70;;;7.10;99.90;;;;;;4977868;28;20049;-79
2022/11/25 01:18:50;;;;;;;11.90;3.22;;;7.00;99.90;;;;;;4958649;28;20448;-79
2022/11/25 01:21:21;;;;;;;14.90;3.67;;;7.00;99.90;;;;;;4991418;28;20378;-79
2022/11/25 01:23:49;;;;;;;10.55;3.50;;;7.00;99.90;;;;;;4948703;28;20081;-79
2022/11/25 01:26:19;;;;;;;11.98;3.42;;;7.00;99.90;;;;;;4977377;28;20169;-79
2022/11/25 01:28:46;;;;;;;18.83;4.28;;;7.00;99.90;;;;;;4977980;28;20042;-79
2022/11/25 01:31:17;;;;;;;15.32;4.30;;;6.90;99.90;;;;;;4958602;28;20444;-79
2022/11/25 01:33:43;;;;;;;13.52;3.80;;;6.90;99.90;;;;;;4958838;28;20086;-79
2022/11/25 01:36:12;;;;;;;16.80;4.15;;;6.90;99.90;;;;;;5010082;28;20082;-80
2022/11/25 01:38:38;;;;;;;12.20;3.67;;;6.90;99.90;;;;;;4977451;28;20054;-79
2022/11/25 01:41:05;;;;;;;16.08;4.00;;;6.80;99.90;;;;;;4953752;28;20045;-79
2022/11/25 01:43:31;;;;;;;12.43;4.13;;;6.80;99.90;;;;;;4958515;28;20038;-79
2022/11/25 01:46:23;;;;;;;13.63;4.00;;;6.80;99.90;;;;;;4988977;28;20038;-79
2022/11/25 01:48:55;;;;;;;15.18;3.97;;;6.90;99.90;;;;;;4995829;28;20056;-79
2022/11/25 01:51:23;;;;;;;19.20;5.28;;;6.90;99.90;;;;;;4977930;28;20053;-79
2022/11/25 01:53:50;;;;;;;11.98;4.00;;;6.90;99.90;;;;;;4977852;28;20476;-79
2022/11/25 01:56:16;;;;;;;11.48;3.65;;;6.90;99.90;;;;;;4977611;28;20077;-79
2022/11/25 01:58:44;;;;;;;15.25;4.47;;;6.90;99.90;;;;;;5008987;28;20062;-79
2022/11/25 02:01:09;;;;;;;13.65;4.20;;;7.00;99.90;;;;;;4977259;28;20463;-80
2022/11/25 02:03:40;;;;;;;10.65;3.83;;;7.00;99.90;;;;;;4990148;28;20122;-79
2022/11/25 02:06:21;;;;;;;14.35;5.03;;;7.00;99.90;;;;;;4957413;28;20051;-80
2022/11/25 02:08:50;;;;;;;16.63;4.28;;;7.00;99.90;;;;;;4957230;28;20070;-79
2022/11/25 02:11:17;;;;;;;14.55;4.25;;;7.10;99.90;;;;;;4956843;28;20042;-79
2022/11/25 02:13:45;;;;;;;14.38;4.20;;;7.00;99.90;;;;;;4957684;28;20050;-79
2022/11/25 02:16:11;;;;;;;16.80;4.03;;;7.10;99.90;;;;;;4957859;28;20126;-79
2022/11/25 02:18:36;;;;;;;14.80;4.40;;;7.10;99.90;;;;;;4966028;28;20515;-79
2022/11/25 02:21:02;;;;;;;12.68;4.32;;;7.10;99.90;;;;;;4976582;28;20460;-79
2022/11/25 02:23:41;;;;;;;18.17;4.53;;;7.10;99.90;;;;;;4989906;28;20448;-78
2022/11/25 02:26:07;;;;;;;15.57;4.53;;;7.10;99.90;;;;;;4957246;28;20548;-77
2022/11/25 02:28:33;;;;;;;16.35;4.45;;;7.10;99.90;;;;;;4956856;28;20061;-77
2022/11/25 02:30:59;;;;;;;18.60;4.82;;;7.10;99.90;;;;;;4956842;28;20142;-78
2022/11/25 02:33:26;;;;;;;16.13;4.38;;;7.10;99.90;;;;;;4956216;28;20138;-78
2022/11/25 02:35:56;;;;;;;22.15;5.13;;;7.10;99.90;;;;;;4958937;28;20090;-77
2022/11/25 02:38:36;;;;;;;14.90;4.20;;;7.10;99.90;;;;;;4956494;28;20070;-78
2022/11/25 02:41:32;;;;;;;19.38;4.57;;;7.10;99.90;;;;;;4976233;28;20034;-78
2022/11/25 02:43:58;;;;;;;16.05;4.22;;;7.10;99.90;;;;;;4972786;28;20030;-78
2022/11/25 02:46:26;;;;;;;16.00;4.82;;;7.10;99.90;;;;;;4980195;28;20073;-78
2022/11/25 02:48:53;;;;;;;15.55;4.65;;;7.00;99.90;;;;;;4972382;28;20413;-79
2022/11/25 02:51:21;;;;;;;18.60;4.78;;;7.10;99.90;;;;;;4975080;28;20129;-78
2022/11/25 02:53:48;;;;;;;17.35;4.65;;;7.00;99.90;;;;;;4973687;28;20074;-78
2022/11/25 02:56:15;;;;;;;13.93;4.38;;;7.10;99.90;;;;;;4953186;28;20038;-78
2022/11/25 02:58:41;;;;;;;15.18;4.35;;;7.00;99.90;;;;;;4970976;28;20445;-78
2022/11/25 03:01:07;;;;;;;13.73;4.43;;;7.10;99.90;;;;;;4977022;28;20034;-78
2022/11/25 03:03:33;;;;;;;11.90;5.03;;;7.10;99.90;;;;;;4992761;28;20128;-78
2022/11/25 03:05:59;;;;;;;14.50;4.22;;;7.10;99.90;;;;;;4974873;28;20125;-79
2022/11/25 03:08:24;;;;;;;15.38;4.55;;;7.10;99.90;;;;;;4982232;28;20113;-79
2022/11/25 03:10:50;;;;;;;17.05;6.10;;;7.10;99.90;;;;;;4979505;28;20065;-78
2022/11/25 03:13:15;;;;;;;18.27;5.13;;;7.20;99.90;;;;;;4950188;28;20046;-78
2022/11/25 03:15:41;;;;;;;19.88;5.50;;;7.20;99.90;;;;;;4990913;28;20459;-78
2022/11/25 03:18:07;;;;;;;17.48;5.10;;;7.20;99.90;;;;;;4981631;28;20042;-78
2022/11/25 03:20:34;;;;;;;17.08;5.55;;;7.20;99.90;;;;;;4974071;28;20050;-78
2022/11/25 03:23:00;;;;;;;15.35;5.35;;;7.20;99.90;;;;;;5000610;28;20125;-77
2022/11/25 03:25:26;;;;;;;14.45;4.85;;;7.20;99.90;;;;;;4977505;28;20038;-78
2022/11/25 03:27:51;;;;;;;16.65;6.05;;;7.20;99.90;;;;;;4980788;28;20061;-77
2022/11/25 03:30:23;;;;;;;16.52;5.25;;;7.30;99.90;;;;;;4981826;28;20030;-79
2022/11/25 03:32:48;;;;;;;21.75;5.85;;;7.30;99.90;;;;;;5006585;28;20117;-77
2022/11/25 03:35:14;;;;;;;14.95;5.32;;;7.30;99.90;;;;;;4999612;28;20120;-77
2022/11/25 03:37:40;;;;;;;20.45;6.13;;;7.30;99.90;;;;;;4974784;28;20076;-78
2022/11/25 03:40:07;;;;;;;21.67;6.53;;;7.30;99.90;;;;;;4984015;28;20080;-78
2022/11/25 03:42:33;;;;;;;20.17;6.43;;;7.40;99.90;;;;;;4979734;28;20038;-77
2022/11/25 03:44:58;;;;;;;26.65;6.72;;;7.40;99.90;;;;;;4958122;28;20587;-78
2022/11/25 03:47:24;;;;;;;17.85;6.93;;;7.50;99.90;;;;;;4972063;28;20046;-78
2022/11/25 03:49:50;;;;;;;19.20;6.05;;;7.30;99.90;;;;;;4978126;28;20181;-81
2022/11/25 03:52:15;;;;;;;18.15;6.60;;;7.40;99.90;;;;;;4980706;28;20064;-78
2022/11/25 03:54:41;;;;;;;24.20;6.78;;;7.40;99.90;;;;;;4974252;28;20073;-78
2022/11/25 03:57:06;;;;;;;21.88;7.93;;;7.40;99.90;;;;;;4979672;28;20042;-78
2022/11/25 03:59:32;;;;;;;21.58;7.47;;;7.30;99.90;;;;;;4957586;28;20053;-78
2022/11/25 04:01:57;;;;;;;24.90;7.65;;;7.40;99.90;;;;;;4991648;28;20038;-77
2022/11/25 04:04:23;;;;;;;20.77;7.60;;;7.40;99.90;;;;;;4978517;28;20468;-78
2022/11/25 04:06:48;;;;;;;19.77;7.70;;;7.40;99.90;;;;;;4973705;28;20066;-77
2022/11/25 04:09:14;;;;;;;22.73;7.80;;;7.40;99.90;;;;;;4974164;28;20084;-78
2022/11/25 04:14:24;;;;;;;20.15;8.13;;;7.40;99.90;;;;;;4973474;28;20043;-77
2022/11/25 04:16:49;;;;;;;22.35;8.10;;;7.40;99.90;;;;;;5007888;28;20149;-78
2022/11/25 04:19:15;;;;;;;18.75;8.10;;;7.40;99.90;;;;;;4974804;28;20117;-78
2022/11/25 04:21:40;;;;;;;20.98;8.75;;;7.40;99.90;;;;;;4990971;28;20038;-78
2022/11/25 04:24:06;;;;;;;19.98;8.07;;;7.40;99.90;;;;;;4983301;28;20034;-77
2022/11/25 04:26:32;;;;;;;22.77;8.07;;;7.40;99.90;;;;;;4978249;28;20042;-77
2022/11/25 04:28:57;;;;;;;24.58;8.90;;;7.40;99.90;;;;;;4975635;28;20641;-78
2022/11/25 04:31:23;;;;;;;21.67;8.63;;;7.40;99.90;;;;;;4980604;28;20499;-78
2022/11/25 04:33:48;;;;;;;23.73;8.52;;;7.40;99.90;;;;;;4973653;28;20038;-77
2022/11/25 04:36:14;;;;;;;22.45;8.07;;;7.40;99.90;;;;;;4975817;28;20052;-78
2022/11/25 04:38:40;;;;;;;25.98;9.00;;;7.40;99.90;;;;;;4958480;28;20195;-77
2022/11/25 04:41:05;;;;;;;24.70;10.10;;;7.40;99.90;;;;;;4973001;28;20046;-77
2022/11/25 04:43:31;;;;;;;25.90;9.48;;;7.50;99.90;;;;;;4973199;28;20053;-78
2022/11/25 04:45:57;;;;;;;17.33;8.23;;;7.40;99.90;;;;;;4974073;28;20077;-78
2022/11/25 04:48:23;;;;;;;27.65;9.23;;;7.40;99.90;;;;;;4972980;28;20046;-78
2022/11/25 04:50:48;;;;;;;23.33;8.50;;;7.50;99.90;;;;;;4973929;28;20030;-78
2022/11/25 04:53:14;;;;;;;21.30;8.85;;;7.40;99.90;;;;;;4974449;28;20038;-78
2022/11/25 04:55:40;;;;;;;22.27;8.82;;;7.40;99.90;;;;;;4980719;28;20041;-77
2022/11/25 04:58:05;;;;;;;26.02;9.65;;;7.40;99.90;;;;;;4976235;28;20049;-78
2022/11/25 05:00:31;;;;;;;24.58;9.07;;;7.40;99.90;;;;;;4979325;28;20454;-78
2022/11/25 05:02:56;;;;;;;25.80;9.15;;;7.50;99.90;;;;;;4982183;28;20034;-78
2022/11/25 05:05:22;;;;;;;20.67;8.77;;;7.50;99.90;;;;;;4977995;28;20035;-78
2022/11/25 05:07:48;;;;;;;22.55;9.23;;;7.50;99.90;;;;;;4976251;28;20030;-78
2022/11/25 05:10:14;;;;;;;25.50;9.10;;;7.50;99.90;;;;;;5009933;28;20419;-78
2022/11/25 05:12:40;;;;;;;28.17;9.75;;;7.50;99.90;;;;;;4976835;28;20046;-78
2022/11/25 05:15:06;;;;;;;20.13;9.05;;;7.50;99.90;;;;;;4955426;28;20042;-78
2022/11/25 05:17:33;;;;;;;24.08;9.27;;;7.50;99.90;;;;;;4976230;28;20068;-78
2022/11/25 05:19:59;;;;;;;23.70;8.90;;;7.50;99.90;;;;;;5008839;28;20074;-78
2022/11/25 05:22:28;;;;;;;21.38;8.93;;;7.50;99.90;;;;;;4979396;28;20125;-78
2022/11/25 05:24:54;;;;;;;23.52;9.00;;;7.50;99.90;;;;;;4977452;28;20038;-78
2022/11/25 05:27:20;;;;;;;23.02;9.60;;;7.50;99.90;;;;;;4980031;28;20124;-79
2022/11/25 05:29:47;;;;;;;22.05;9.13;;;7.50;99.90;;;;;;4978393;28;20039;-78
2022/11/25 05:32:13;;;;;;;23.35;9.93;;;7.50;99.90;;;;;;4977839;28;20042;-78
2022/11/25 05:34:39;;;;;;;30.67;10.55;;;7.50;99.90;;;;;;4975325;28;20515;-78
2022/11/25 05:37:05;;;;;;;19.80;9.80;;;7.50;99.90;;;;;;4978334;28;20046;-78
2022/11/25 05:39:31;;;;;;;27.50;9.85;;;7.50;99.90;;;;;;4976262;28;20034;-78
2022/11/25 05:41:56;;;;;;;26.27;9.88;;;7.50;99.90;;;;;;4978097;28;20115;-78
2022/11/25 05:44:22;;;;;;;23.30;9.85;;;7.50;99.90;;;;;;4983948;28;20038;-78
2022/11/25 05:46:47;;;;;;;25.73;10.05;;;7.50;99.90;;;;;;4975956;28;20034;-78
2022/11/25 05:49:14;;;;;;;26.55;9.93;;;7.50;99.90;;;;;;4983481;28;20045;-78
2022/11/25 05:51:39;;;;;;;23.83;9.55;;;7.50;99.90;;;;;;5008164;28;20046;-78
2022/11/25 05:54:05;;;;;;;23.63;9.52;;;7.50;99.90;;;;;;4975544;28;20056;-78
2022/11/25 05:56:31;;;;;;;24.45;10.00;;;7.50;99.90;;;;;;4976632;28;20061;-78
2022/11/25 05:58:58;;;;;;;22.73;9.98;;;7.50;99.90;;;;;;4975008;28;20078;-77
2022/11/25 06:01:24;;;;;;;21.25;9.32;;;7.50;99.90;;;;;;4975509;28;20038;-78
2022/11/25 06:03:50;;;;;;;27.05;10.40;;;7.50;99.90;;;;;;4979436;28;20041;-78
2022/11/25 06:06:15;;;;;;;22.00;9.50;;;7.50;99.90;;;;;;4992809;28;20042;-77
2022/11/25 06:08:41;;;;;;;26.00;10.85;;;7.50;99.90;;;;;;4975242;28;20047;-78
2022/11/25 06:11:10;;;;;;;23.92;10.07;;;7.50;99.90;;;;;;4980863;28;20038;-78
2022/11/25 06:13:36;;;;;;;26.63;10.68;;;7.50;99.90;;;;;;4975307;28;20062;-78
2022/11/25 06:16:13;;;;;;;24.55;10.43;;;7.60;99.90;;;;;;4976236;28;20130;-78
2022/11/25 06:18:39;;;;;;;21.08;9.95;;;7.50;99.90;;;;;;4976198;28;20085;-78
2022/11/25 06:21:06;;;;;;;24.35;10.15;;;7.50;99.90;;;;;;4976277;28;20034;-78
2022/11/25 06:23:31;;;;;;;22.33;9.43;;;7.50;99.90;;;;;;4964110;28;20440;-78
2022/11/25 06:26:10;;;;;;;25.63;10.05;;;7.50;99.90;;;;;;4985785;28;20041;-78
2022/11/25 06:28:36;;;;;;;18.33;9.70;;;7.60;99.90;;;;;;4984687;28;20038;-78
2022/11/25 06:31:07;;;;;;;23.90;9.32;;;7.60;99.90;;;;;;4981948;28;20030;-78
2022/11/25 06:33:32;;;;;;;19.50;9.35;;;7.60;99.90;;;;;;4990999;28;20046;-78
2022/11/25 06:35:58;;;;;;;23.83;9.48;;;7.50;99.90;;;;;;4982522;28;20046;-78
2022/11/25 06:38:23;;;;;;;21.27;10.07;;;7.50;99.90;;;;;;4974532;28;20046;-78
2022/11/25 06:40:49;;;;;;;19.52;8.98;;;7.60;99.90;;;;;;5006939;28;20042;-78
2022/11/25 06:43:15;;;;;;;23.63;8.93;;;7.60;99.90;;;;;;4978283;28;20034;-78
2022/11/25 06:45:40;;;;;;;24.05;9.80;;;7.60;99.90;;;;;;4981768;28;20038;-78
2022/11/25 06:48:06;;;;;;;20.02;8.73;;;7.60;99.90;;;;;;4980630;28;20268;-78
2022/11/25 06:50:31;;;;;;;20.80;8.65;;;7.60;99.90;;;;;;4974853;28;20129;-78
2022/11/25 06:53:00;;;;;;;19.83;8.55;;;7.60;99.90;;;;;;4983151;28;20053;-79
2022/11/25 06:55:25;;;;;;;17.50;7.82;;;7.60;99.90;;;;;;4982086;28;20058;-78
2022/11/25 06:57:51;;;;;;;24.38;8.23;;;7.60;99.90;;;;;;4966579;28;20578;-78
2022/11/25 07:00:16;;;;;;;17.45;7.78;;;7.60;99.90;;;;;;4982769;28;20039;-78
2022/11/25 07:02:42;;;;;;;17.13;7.13;;;7.60;99.90;;;;;;4977098;28;20038;-78
2022/11/25 07:05:08;;;;;;;15.65;7.32;;;7.60;99.90;;;;;;4967744;28;20034;-78
2022/11/25 07:07:33;;;;;;;19.58;7.32;;;7.60;99.90;;;;;;4977949;28;20038;-79
2022/11/25 07:09:59;;;;;;;18.17;7.20;;;7.60;99.90;;;;;;4977648;28;20104;-78
2022/11/25 07:12:24;;;;;;;19.63;7.50;;;7.60;99.90;;;;;;4986442;28;20089;-78
2022/11/25 07:14:50;;;;;;;16.90;6.68;;;7.60;99.90;;;;;;4974522;28;20042;-78
2022/11/25 07:17:16;;;;;;;21.13;7.22;;;7.60;99.90;;;;;;4974053;28;20496;-79
2022/11/25 07:19:41;;;;;;;16.65;6.63;;;7.60;99.90;;;;;;4974991;28;20042;-77
2022/11/25 07:22:07;;;;;;;18.15;7.30;;;7.60;99.90;;;;;;4990655;28;20100;-78
2022/11/25 07:24:32;;;;;;;14.57;5.80;;;7.70;99.90;;;;;;4975030;28;20165;-78
2022/11/25 07:26:58;;;;;;;17.75;5.75;;;7.70;99.90;;;;;;4977118;28;20121;-78
2022/11/25 07:29:24;;;;;;;15.57;5.70;;;7.70;99.90;;;;;;4976026;28;20143;-78
2022/11/25 07:31:49;;;;;;;13.95;5.18;;;7.70;99.90;;;;;;4975017;28;20046;-78
2022/11/25 07:34:19;;;;;;;15.00;5.68;;;7.60;99.90;;;;;;4979890;28;20039;-78
2022/11/25 07:36:47;;;;;;;15.63;5.13;;;7.60;99.90;;;;;;4973876;28;20448;-78
2022/11/25 07:39:19;;;;;;;14.45;4.72;;;7.60;99.90;;;;;;4965850;28;20031;-79
2022/11/25 07:41:45;;;;;;;11.98;4.97;;;7.60;99.90;;;;;;4973464;28;20039;-78
2022/11/25 07:44:13;;;;;;;15.35;4.90;;;7.60;99.90;;;;;;4973691;28;20030;-78
2022/11/25 07:46:42;;;;;;;12.52;4.85;;;7.60;99.90;;;;;;5007296;28;20098;-78
2022/11/25 07:49:10;;;;;;;10.93;4.25;;;7.60;99.90;;;;;;4972413;28;20116;-77
2022/11/25 07:51:47;;;;;;;14.38;4.88;;;7.60;99.90;;;;;;4974546;28;20098;-78
2022/11/25 07:54:13;;;;;;;14.63;4.53;;;7.60;99.90;;;;;;4965112;28;20074;-78
2022/11/25 07:56:40;;;;;;;12.25;4.95;;;7.60;99.90;;;;;;4974129;28;20077;-78
2022/11/25 07:59:08;;;;;;;14.05;4.15;;;7.60;99.90;;;;;;4958890;28;20038;-78
2022/11/25 08:01:34;;;;;;;11.55;4.32;;;7.60;99.90;;;;;;4973804;28;20049;-79
2022/11/25 08:03:59;;;;;;;9.68;3.95;;;7.60;99.90;;;;;;4974556;28;20038;-78
2022/11/25 08:06:27;;;;;;;14.82;4.60;;;7.50;99.90;;;;;;4974526;28;20046;-78
2022/11/25 08:08:54;;;;;;;12.07;4.25;;;7.50;99.90;;;;;;4955052;28;20043;-78
2022/11/25 08:11:26;;;;;;;11.27;4.00;;;7.50;99.90;;;;;;4990852;28;20496;-77
2022/11/25 08:13:52;;;;;;;12.68;4.25;;;7.50;99.90;;;;;;4973365;28;20061;-78
2022/11/25 08:16:20;;;;;;;11.57;4.05;;;7.50;99.90;;;;;;4963315;28;20042;-78
2022/11/25 08:18:46;;;;;;;10.93;4.13;;;7.50;99.90;;;;;;4973820;28;20060;-78
2022/11/25 08:21:14;;;;;;;9.05;3.90;;;7.50;99.90;;;;;;5006640;28;20034;-77
2022/11/25 08:23:42;;;;;;;13.10;4.13;;;7.50;99.90;;;;;;5005880;28;20042;-78
2022/11/25 08:26:14;;;;;;;12.55;4.47;;;7.50;99.90;;;;;;4973315;28;20040;-78
2022/11/25 08:28:41;;;;;;;11.52;3.92;;;7.50;99.90;;;;;;4970801;28;20039;-78
2022/11/25 08:31:13;;;;;;;8.15;3.63;;;7.50;99.90;;;;;;4972137;28;20492;-78
2022/11/25 08:33:39;;;;;;;11.23;4.13;;;7.50;99.90;;;;;;4972949;28;20030;-78
2022/11/25 08:36:05;;;;;;;10.13;4.10;;;7.50;99.90;;;;;;4976636;28;20557;-77
2022/11/25 08:38:32;;;;;;;13.80;4.65;;;7.50;99.90;;;;;;4993948;28;20084;-78
2022/11/25 08:40:58;;;;;;;11.68;4.18;;;7.50;99.90;;;;;;4960700;28;20077;-77
2022/11/25 08:43:24;;;;;;;10.02;4.30;;;7.50;99.90;;;;;;4963683;28;20505;-78
2022/11/25 08:45:50;;;;;;;9.50;3.78;;;7.60;99.90;;;;;;4978149;28;20046;-78
2022/11/25 08:48:18;;;;;;;14.98;4.43;;;7.60;99.90;;;;;;4992949;28;20480;-78
2022/11/25 08:50:47;;;;;;;11.77;4.38;;;7.60;99.90;;;;;;4976828;28;20113;-78
2022/11/25 08:53:12;;;;;;;9.93;4.05;;;7.60;99.90;;;;;;4977572;28;20408;-78
2022/11/25 08:55:38;;;;;;;12.55;4.82;;;7.60;99.90;;;;;;4977729;28;20046;-77
2022/11/25 08:58:04;;;;;;;13.18;4.28;;;7.70;99.90;;;;;;4976629;28;20045;-78
2022/11/25 09:00:29;;;;;;;11.93;4.10;;;7.70;99.90;;;;;;4977753;28;20129;-78
2022/11/25 09:02:55;;;;;;;11.18;4.38;;;7.70;99.90;;;;;;4976416;28;20496;-78
2022/11/25 09:05:20;;;;;;;7.85;4.20;;;7.70;99.90;;;;;;4977732;28;20435;-78
2022/11/25 09:07:46;;;;;;;10.68;4.32;;;7.70;99.90;;;;;;4974790;28;20050;-78
2022/11/25 09:10:16;;;;;;;10.93;4.20;;;7.70;99.90;;;;;;4977828;28;20053;-78
2022/11/25 09:12:42;;;;;;;10.82;4.18;;;7.80;99.90;;;;;;4979541;28;20117;-78
2022/11/25 09:15:08;;;;;;;12.73;4.30;;;7.80;99.90;;;;;;4993958;28;20126;-78
2022/11/25 09:17:36;;;;;;;10.70;4.25;;;7.80;99.90;;;;;;4976844;28;20042;-78
2022/11/25 09:20:04;;;;;;;12.35;4.47;;;7.80;99.90;;;;;;4981176;28;20103;-78
2022/11/25 09:22:31;;;;;;;12.20;4.28;;;7.90;99.90;;;;;;4999131;28;20030;-78
2022/11/25 09:24:56;;;;;;;12.38;4.93;;;7.90;99.90;;;;;;4978706;28;20053;-78
2022/11/25 09:27:22;;;;;;;13.43;5.10;;;8.00;99.90;;;;;;4992239;28;20042;-77
2022/11/25 09:29:47;;;;;;;11.63;4.32;;;8.00;99.90;;;;;;4974898;28;20039;-78
2022/11/25 09:32:13;;;;;;;17.50;5.22;;;8.00;99.90;;;;;;4976512;28;20508;-77
2022/11/25 09:34:38;;;;;;;16.52;4.90;;;8.10;99.90;;;;;;4977040;28;20073;-78
2022/11/25 09:37:04;;;;;;;9.98;4.32;;;8.10;99.90;;;;;;4976558;28;20052;-78
2022/11/25 09:39:29;;;;;;;10.68;4.28;;;8.20;99.90;;;;;;4992595;28;20035;-78
2022/11/25 09:48:44;;;;;;;11.02;4.47;;;8.30;99.90;;;;;;5008150;28;20054;-77
2022/11/25 09:51:23;;;;;;;9.88;4.05;;;8.30;99.90;;;;;;4997797;28;20042;-78
2022/11/25 09:54:25;;;;;;;11.10;4.28;;;8.40;99.90;;;;;;4957767;28;20408;-77
2022/11/25 09:57:02;;;;;;;9.98;3.92;;;8.50;99.90;;;;;;4953487;28;20047;-77
2022/11/25 10:00:02;;;;;;;10.65;4.30;;;8.50;99.90;;;;;;4976455;28;20035;-78
2022/11/25 10:02:39;;;;;;;11.70;4.32;;;8.60;99.90;;;;;;4969940;28;20046;-79
2022/11/25 10:05:14;;;;;;;10.18;4.10;;;8.70;99.90;;;;;;4976962;28;20395;-79
2022/11/25 10:07:43;;;;;;;8.07;3.58;;;8.70;99.90;;;;;;4976057;28;20157;-78
2022/11/25 10:10:21;;;;;;;11.02;4.07;;;8.70;99.90;;;;;;4975723;28;20084;-78
2022/11/25 10:12:48;;;;;;;9.70;3.90;;;8.80;99.90;;;;;;4976521;28;20050;-78
2022/11/25 10:15:42;;;;;;;9.68;3.97;;;8.80;99.90;;;;;;5009108;28;20440;-78
2022/11/25 10:18:25;;;;;;;13.27;4.25;;;8.90;99.90;;;;;;4975211;28;20085;-79
2022/11/25 10:20:52;;;;;;;10.80;4.13;;;8.90;99.90;;;;;;4992660;28;20121;-78
2022/11/25 10:23:23;;;;;;;12.07;4.18;;;9.00;99.90;;;;;;4975140;28;20038;-78
2022/11/25 10:25:54;;;;;;;10.27;3.80;;;9.00;99.90;;;;;;4975424;28;20034;-78
2022/11/25 10:28:21;;;;;;;8.50;3.35;;;9.10;99.90;;;;;;5008518;28;20146;-78
2022/11/25 10:30:49;;;;;;;13.13;4.07;;;9.10;99.90;;;;;;4976647;28;20046;-79
2022/11/25 10:33:15;;;;;;;9.85;4.00;;;9.20;99.90;;;;;;4976868;28;20104;-79
2022/11/25 10:35:47;;;;;;;9.65;3.53;;;9.30;99.90;;;;;;4992531;28;20128;-79
2022/11/25 10:38:40;;;;;;;10.10;3.67;;;9.30;99.90;;;;;;5008548;28;20077;-79
2022/11/25 10:41:06;;;;;;;10.45;4.35;;;9.40;99.90;;;;;;4957616;28;20496;-80
2022/11/25 10:43:32;;;;;;;9.07;3.28;;;9.40;99.90;;;;;;4957170;28;20038;-79
2022/11/25 10:46:24;;;;;;;10.05;3.50;;;9.40;99.90;;;;;;4973081;28;20073;-79
2022/11/25 10:49:12;;;;;;;9.30;3.85;;;9.40;99.90;;;;;;4975985;28;20053;-79
2022/11/25 10:51:48;;;;;;;12.90;3.35;;;9.40;99.90;;;;;;4973207;28;20070;-79
2022/11/25 10:54:23;;;;;;;13.80;3.60;;;9.30;99.90;;;;;;4955965;28;20035;-79
2022/11/25 10:56:48;;;;;;;11.23;3.45;;;9.30;99.90;;;;;;4955675;28;20081;-79
2022/11/25 10:59:26;;;;;;;12.45;3.38;;;9.30;99.90;;;;;;4940682;28;20039;-79
2022/11/25 11:01:52;;;;;;;8.48;3.47;;;9.30;99.90;;;;;;4972215;28;20183;-79
2022/11/25 11:04:18;;;;;;;14.82;4.10;;;9.30;99.90;;;;;;4987541;28;20035;-79
2022/11/25 11:06:46;;;;;;;10.75;3.75;;;9.30;99.90;;;;;;4939258;28;20121;-79
2022/11/25 11:09:35;;;;;;;9.20;3.10;;;9.40;99.90;;;;;;5003514;28;20523;-79
2022/11/25 11:12:20;;;;;;;9.77;3.17;;;9.50;99.90;;;;;;4957617;28;20508;-79
2022/11/25 11:14:46;;;;;;;9.95;3.08;;;9.60;99.90;;;;;;4973443;28;20042;-80
2022/11/25 11:17:34;;;;;;;12.90;3.53;;;9.70;99.90;;;;;;4973691;28;20038;-79
2022/11/25 11:20:13;;;;;;;11.30;3.22;;;9.80;99.90;;;;;;4989453;28;20065;-79
2022/11/25 11:23:08;;;;;;;11.15;3.72;;;9.90;99.90;;;;;;4975415;28;20574;-80
2022/11/25 11:25:36;;;;;;;7.50;2.85;;;10.00;99.90;;;;;;4949063;28;20504;-80
2022/11/25 11:28:22;;;;;;;8.95;3.30;;;10.10;99.90;;;;;;4985801;28;20038;-80
2022/11/25 11:31:19;;;;;;;6.28;3.00;;;10.10;99.90;;;;;;4992740;28;20049;-80
2022/11/25 11:33:47;;;;;;;10.68;2.88;;;10.20;99.90;;;;;;4992236;28;20038;-80
2022/11/25 11:36:38;;;;;;;11.55;3.35;;;10.20;99.90;;;;;;4976046;28;20400;-80
2022/11/25 11:39:32;;;;;;;14.15;2.72;;;10.30;99.90;;;;;;4975017;28;20108;-80
2022/11/25 11:42:28;;;;;;;10.25;3.05;;;10.30;99.90;;;;;;4974601;28;20069;-80
2022/11/25 11:45:21;;;;;;;11.63;2.70;;;10.20;99.90;;;;;;4975342;28;20046;-80
2022/11/25 11:48:08;;;;;;;10.52;2.92;;;10.10;99.90;;;;;;4975486;28;20082;-80
2022/11/25 11:50:47;;;;;;;13.82;2.53;;;10.10;99.90;;;;;;4975671;28;20098;-80
2022/11/25 11:53:43;;;;;;;13.20;2.80;;;10.10;99.90;;;;;;4975728;28;20141;-80
2022/11/25 11:56:31;;;;;;;11.48;2.60;;;10.20;99.90;;;;;;4974758;28;20061;-77
2022/11/25 11:59:24;;;;;;;11.10;2.53;;;10.30;99.90;;;;;;4974363;28;20080;-78
2022/11/25 12:02:22;;;;;;;12.07;2.78;;;10.40;99.90;;;;;;4974966;28;20079;-78
2022/11/25 12:05:21;;;;;;;11.55;2.33;;;10.40;99.90;;;;;;4974333;28;20141;-78
2022/11/25 12:07:53;;;;;;;11.15;2.47;;;10.50;99.90;;;;;;4972908;28;20058;-78
2022/11/25 12:10:56;;;;;;;11.77;2.47;;;10.50;99.90;;;;;;4974272;28;20069;-77
2022/11/25 12:13:31;;;;;;;10.68;2.45;;;10.50;99.90;;;;;;5007286;28;20488;-77
2022/11/25 12:16:06;;;;;;;8.93;2.45;;;10.60;99.90;;;;;;4958804;28;20531;-77
2022/11/25 12:18:51;;;;;;;11.23;2.40;;;10.70;99.90;;;;;;4974436;28;20039;-77
2022/11/25 12:21:38;;;;;;;13.35;2.30;;;10.60;99.90;;;;;;4974699;28;20503;-79
2022/11/25 12:24:04;;;;;;;9.63;2.85;;;10.70;99.90;;;;;;4975003;28;20432;-78
2022/11/25 12:26:52;;;;;;;11.10;2.03;;;10.80;99.90;;;;;;4974325;28;20057;-78
2022/11/25 12:29:41;;;;;;;12.07;2.45;;;10.80;99.90;;;;;;4974358;28;20451;-78
2022/11/25 12:32:19;;;;;;;12.38;3.45;;;10.90;99.90;;;;;;5008173;28;20122;-80
2022/11/25 12:34:57;;;;;;;11.95;2.00;;;11.00;99.90;;;;;;4978090;28;20086;-80
2022/11/25 12:37:56;;;;;;;10.30;2.13;;;11.10;99.90;;;;;;4978502;28;20046;-80
2022/11/25 12:40:45;;;;;;;13.23;2.55;;;11.20;99.90;;;;;;4968194;28;20154;-81
2022/11/25 12:43:20;;;;;;;10.32;1.92;;;11.10;99.90;;;;;;4960051;28;20100;-80
2022/11/25 12:45:57;;;;;;;12.82;2.17;;;11.00;99.90;;;;;;4977953;28;20041;-80
2022/11/25 12:48:22;;;;;;;13.45;2.30;;;11.00;99.90;;;;;;4977531;28;20094;-80
2022/11/25 12:51:09;;;;;;;9.23;2.58;;;11.10;99.90;;;;;;4995083;28;20508;-81
2022/11/25 12:54:18;;;;;;;12.68;2.58;;;11.20;99.90;;;;;;4975729;28;20068;-81
2022/11/25 12:57:02;;;;;;;7.53;2.25;;;11.30;99.90;;;;;;4967335;28;20069;-80
2022/11/25 12:59:33;;;;;;;;;;;11.30;99.90;;;;;;4975535;28;20042;-80
2022/11/25 13:02:22;;;;;;;8.52;2.08;;;11.50;99.90;;;;;;5009702;28;19984;-81
2022/11/25 13:05:17;;;;;;;13.02;2.42;;;11.70;99.90;;;;;;4993003;28;20379;-81
2022/11/25 13:08:13;;;;;;;12.07;2.45;;;11.70;99.90;;;;;;4977646;28;20046;-81
2022/11/25 13:10:45;;;;;;;13.18;2.40;;;11.60;99.90;;;;;;4956747;28;20055;-80
2022/11/25 13:13:18;;;;;;;12.60;2.03;;;11.60;99.90;;;;;;4975753;28;20485;-80